createdAt,value
2023-01-17T00:01:50.468Z,5.88
2023-01-17T00:04:36.027Z,7.57
2023-01-17T00:07:21.793Z,4.30
2023-01-17T00:09:55.967Z,5.07
2023-01-17T00:12:25.398Z,5.10
2023-01-17T00:14:54.502Z,5.38
2023-01-17T00:17:26.281Z,14.82
2023-01-17T00:20:12.535Z,9.53
2023-01-17T00:22:58.953Z,9.15
2023-01-17T00:25:50.801Z,5.57
2023-01-17T00:28:18.266Z,6.45
2023-01-17T00:30:45.859Z,4.13
2023-01-17T00:33:13.404Z,6.20
2023-01-17T00:35:40.691Z,3.93
2023-01-17T00:38:08.740Z,4.60
2023-01-17T00:40:38.009Z,4.18
2023-01-17T00:43:25.023Z,6.30
2023-01-17T00:46:11.537Z,4.78
2023-01-17T00:48:57.715Z,3.07
2023-01-17T00:51:44.693Z,3.40
2023-01-17T00:54:30.859Z,3.70
2023-01-17T00:57:16.541Z,3.47
2023-01-17T01:00:02.701Z,2.10
2023-01-17T01:02:48.628Z,1.77
2023-01-17T01:05:34.650Z,3.23
2023-01-17T01:08:21.274Z,8.40
2023-01-17T01:11:07.789Z,8.73
2023-01-17T01:13:53.375Z,8.47
2023-01-17T01:16:39.317Z,10.43
2023-01-17T01:19:25.108Z,16.48
2023-01-17T01:22:11.822Z,8.98
2023-01-17T01:24:57.640Z,7.33
2023-01-17T01:27:43.396Z,17.05
2023-01-17T01:30:29.911Z,5.50
2023-01-17T01:33:15.439Z,7.37
2023-01-17T01:35:42.964Z,5.03
2023-01-17T01:38:10.032Z,6.83
2023-01-17T01:40:46.365Z,3.80
2023-01-17T01:43:16.311Z,3.60
2023-01-17T01:45:49.521Z,6.82
2023-01-17T01:48:27.327Z,3.97
2023-01-17T01:50:54.754Z,3.70
2023-01-17T01:53:22.451Z,6.82
2023-01-17T01:55:52.204Z,3.17
2023-01-17T01:58:22.773Z,4.33
2023-01-17T02:00:50.354Z,8.23
2023-01-17T02:03:26.412Z,5.13
2023-01-17T02:05:53.623Z,3.40
2023-01-17T02:08:23.922Z,3.75
2023-01-17T02:10:51.079Z,3.15
2023-01-17T02:13:20.190Z,17.90
2023-01-17T02:16:07.512Z,9.75
2023-01-17T02:19:09.944Z,5.40
2023-01-17T02:22:15.024Z,6.38
2023-01-17T02:25:07.999Z,5.85
2023-01-17T02:28:06.492Z,6.07
2023-01-17T02:30:45.113Z,7.35
2023-01-17T02:33:18.608Z,9.73
2023-01-17T02:35:45.626Z,8.57
2023-01-17T02:38:26.680Z,7.10
2023-01-17T02:41:00.361Z,10.43
2023-01-17T02:43:27.654Z,9.10
2023-01-17T02:45:54.812Z,7.17
2023-01-17T02:48:26.249Z,5.50
2023-01-17T02:51:24.736Z,4.18
2023-01-17T02:54:32.037Z,7.17
2023-01-17T02:57:04.633Z,10.63
2023-01-17T02:59:57.666Z,5.32
2023-01-17T03:02:34.291Z,2.08
2023-01-17T03:05:08.884Z,4.10
2023-01-17T03:07:39.783Z,5.87
2023-01-17T03:10:08.025Z,2.10
2023-01-17T03:12:37.223Z,2.67
2023-01-17T03:15:10.469Z,8.52
2023-01-17T03:17:40.818Z,5.15
2023-01-17T03:20:08.663Z,6.18
2023-01-17T03:22:35.719Z,3.00
2023-01-17T03:25:02.840Z,3.40
2023-01-17T03:27:29.887Z,3.97
2023-01-17T03:29:57.189Z,4.57
2023-01-17T03:32:24.309Z,7.57
2023-01-17T03:34:51.362Z,4.50
2023-01-17T03:37:18.436Z,4.38
2023-01-17T03:39:45.507Z,4.45
2023-01-17T03:42:12.827Z,4.35
2023-01-17T03:44:39.910Z,6.72
2023-01-17T03:47:07.030Z,6.20
2023-01-17T03:49:34.085Z,22.33
2023-01-17T03:52:01.302Z,11.13
2023-01-17T03:54:28.354Z,8.85
2023-01-17T03:56:55.390Z,6.90
2023-01-17T03:59:22.487Z,9.07
2023-01-17T04:01:49.991Z,8.50
2023-01-17T04:04:17.155Z,11.03
2023-01-17T04:06:44.579Z,9.05
2023-01-17T04:09:11.645Z,7.72
2023-01-17T04:11:38.711Z,8.65
2023-01-17T04:14:05.838Z,8.10
2023-01-17T04:16:33.082Z,11.88
2023-01-17T04:19:00.156Z,10.93
2023-01-17T04:21:27.216Z,9.90
2023-01-17T04:23:54.251Z,8.40
2023-01-17T04:26:21.299Z,14.52
2023-01-17T04:28:48.443Z,7.47
2023-01-17T04:31:17.070Z,10.23
2023-01-17T04:33:44.236Z,6.20
2023-01-17T04:36:11.675Z,4.35
2023-01-17T04:38:38.715Z,4.63
2023-01-17T04:41:05.800Z,5.88
2023-01-17T04:43:32.875Z,5.55
2023-01-17T04:45:59.997Z,7.20
2023-01-17T04:48:27.447Z,8.35
2023-01-17T04:51:01.358Z,8.60
2023-01-17T04:53:28.605Z,8.30
2023-01-17T04:55:55.896Z,8.65
2023-01-17T04:58:23.144Z,7.13
2023-01-17T05:00:51.672Z,8.67
2023-01-17T05:03:20.036Z,6.43
2023-01-17T05:05:47.790Z,10.90
2023-01-17T05:08:15.332Z,7.40
2023-01-17T05:10:42.439Z,15.30
2023-01-17T05:13:09.522Z,14.77
2023-01-17T05:15:36.949Z,6.80
2023-01-17T05:18:08.419Z,5.65
2023-01-17T05:20:36.523Z,7.65
2023-01-17T05:23:03.708Z,6.93
2023-01-17T05:25:32.364Z,5.07
2023-01-17T05:28:00.130Z,7.63
2023-01-17T05:30:28.765Z,10.55
2023-01-17T05:32:57.579Z,7.13
2023-01-17T05:35:34.753Z,9.48
2023-01-17T05:38:02.351Z,5.10
2023-01-17T05:40:31.532Z,9.83
2023-01-17T05:43:00.240Z,6.57
2023-01-17T05:45:28.841Z,6.82
2023-01-17T05:47:56.867Z,7.32
2023-01-17T05:50:27.113Z,10.13
2023-01-17T05:52:56.848Z,27.83
2023-01-17T05:55:25.408Z,33.72
2023-01-17T05:57:52.867Z,31.97
2023-01-17T06:00:21.075Z,28.42
2023-01-17T06:02:48.562Z,21.35
2023-01-17T06:05:16.612Z,14.23
2023-01-17T06:07:45.651Z,14.57
2023-01-17T06:10:16.882Z,15.43
2023-01-17T06:12:45.299Z,16.10
2023-01-17T06:15:14.084Z,13.23
2023-01-17T06:17:41.230Z,11.32
2023-01-17T06:20:10.032Z,8.85
2023-01-17T06:22:37.120Z,9.88
2023-01-17T06:25:04.504Z,9.15
2023-01-17T06:27:31.575Z,10.80
2023-01-17T06:29:58.639Z,8.68
2023-01-17T06:32:25.718Z,10.17
2023-01-17T06:34:52.815Z,8.23
2023-01-17T06:37:19.883Z,7.40
2023-01-17T06:39:46.931Z,11.38
2023-01-17T06:42:14.000Z,5.00
2023-01-17T06:44:41.102Z,6.88
2023-01-17T06:47:08.162Z,6.70
2023-01-17T06:49:35.268Z,12.43
2023-01-17T06:52:02.336Z,7.65
2023-01-17T06:54:29.398Z,7.80
2023-01-17T06:56:56.529Z,7.32
2023-01-17T06:59:23.727Z,5.97
2023-01-17T07:01:50.816Z,4.78
2023-01-17T07:04:17.934Z,4.07
2023-01-17T07:06:45.039Z,3.10
2023-01-17T07:09:12.559Z,5.13
2023-01-17T07:11:39.625Z,3.50
2023-01-17T07:14:14.445Z,11.30
2023-01-17T07:16:45.848Z,3.97
2023-01-17T07:19:13.132Z,3.63
2023-01-17T07:21:40.639Z,1.80
2023-01-17T07:24:09.013Z,11.07
2023-01-17T07:26:37.927Z,4.03
2023-01-17T07:29:05.698Z,4.97
2023-01-17T07:31:38.283Z,13.48
2023-01-17T07:34:05.498Z,12.20
2023-01-17T07:36:33.284Z,22.23
2023-01-17T07:39:00.365Z,17.27
2023-01-17T07:41:27.560Z,12.75
2023-01-17T07:43:56.307Z,11.73
2023-01-17T07:46:23.712Z,10.65
2023-01-17T07:48:50.849Z,11.20
2023-01-17T07:51:17.930Z,11.80
2023-01-17T07:53:45.034Z,7.57
2023-01-17T07:56:12.067Z,6.60
2023-01-17T07:58:39.134Z,6.50
2023-01-17T08:01:08.980Z,4.35
2023-01-17T08:03:39.835Z,4.57
2023-01-17T08:06:17.221Z,3.58
2023-01-17T08:08:44.858Z,4.22
2023-01-17T08:11:11.957Z,4.20
2023-01-17T08:13:39.048Z,3.05
2023-01-17T08:16:06.585Z,1.77
2023-01-17T08:18:33.752Z,4.18
2023-01-17T08:21:00.908Z,1.83
2023-01-17T08:23:28.066Z,5.18
2023-01-17T08:26:00.145Z,4.22
2023-01-17T08:28:27.332Z,6.55
2023-01-17T08:30:54.443Z,5.10
2023-01-17T08:33:21.536Z,5.27
2023-01-17T08:35:53.335Z,5.75
2023-01-17T08:38:20.885Z,5.87
2023-01-17T08:40:47.968Z,4.65
2023-01-17T08:43:15.107Z,8.02
2023-01-17T08:45:45.314Z,9.25
2023-01-17T08:48:12.431Z,18.63
2023-01-17T08:50:41.939Z,18.97
2023-01-17T08:53:09.049Z,21.10
2023-01-17T08:55:39.495Z,9.48
2023-01-17T08:58:07.765Z,10.57
2023-01-17T09:00:34.987Z,8.50
2023-01-17T09:03:02.066Z,14.40
2023-01-17T09:05:29.159Z,12.68
2023-01-17T09:07:56.739Z,11.82
2023-01-17T09:10:23.944Z,13.53
2023-01-17T09:12:51.034Z,12.15
2023-01-17T09:15:20.111Z,12.10
2023-01-17T09:17:47.871Z,5.90
2023-01-17T09:20:14.966Z,12.90
2023-01-17T09:22:42.059Z,7.67
2023-01-17T09:25:09.334Z,10.32
2023-01-17T09:27:36.454Z,10.57
2023-01-17T09:30:04.464Z,9.82
2023-01-17T09:32:31.531Z,10.20
2023-01-17T09:35:00.615Z,7.35
2023-01-17T09:37:27.775Z,22.77
2023-01-17T09:39:54.815Z,55.38
2023-01-17T09:42:38.890Z,21.00
2023-01-17T09:45:16.290Z,14.98
2023-01-17T09:47:51.230Z,18.48
2023-01-17T09:50:27.307Z,14.23
2023-01-17T09:53:01.148Z,25.23
2023-01-17T09:55:39.875Z,27.25
2023-01-17T09:58:12.606Z,34.33
2023-01-17T10:00:47.144Z,31.90
2023-01-17T10:03:26.470Z,13.77
2023-01-17T10:06:21.333Z,18.33
2023-01-17T10:08:48.339Z,13.00
2023-01-17T10:11:43.937Z,16.80
2023-01-17T10:14:38.396Z,13.63
2023-01-17T10:17:27.064Z,20.98
2023-01-17T10:20:12.606Z,12.95
2023-01-17T10:22:54.689Z,20.05
2023-01-17T10:25:27.573Z,15.30
2023-01-17T10:28:00.028Z,28.77
2023-01-17T10:30:34.525Z,11.25
2023-01-17T10:33:12.495Z,23.08
2023-01-17T10:36:10.042Z,12.73
2023-01-17T10:38:38.999Z,10.50
2023-01-17T10:41:09.143Z,6.33
2023-01-17T10:44:01.772Z,11.40
2023-01-17T10:46:37.869Z,5.68
2023-01-17T10:49:05.044Z,9.18
2023-01-17T10:52:00.185Z,7.97
2023-01-17T10:54:39.901Z,12.20
2023-01-17T10:57:15.641Z,10.53
2023-01-17T10:59:44.045Z,6.97
2023-01-17T11:02:25.394Z,4.93
2023-01-17T11:04:54.955Z,8.88
2023-01-17T11:07:24.980Z,7.73
2023-01-17T11:09:54.746Z,5.37
2023-01-17T11:12:43.669Z,6.40
2023-01-17T11:15:10.684Z,8.52
2023-01-17T11:17:46.325Z,1.55
2023-01-17T11:20:23.455Z,7.47
2023-01-17T11:23:11.911Z,6.43
2023-01-17T11:25:39.050Z,9.00
2023-01-17T11:28:20.167Z,6.97
2023-01-17T11:30:56.109Z,6.50
2023-01-17T11:33:55.536Z,3.70
2023-01-17T11:36:27.244Z,6.75
2023-01-17T11:39:05.062Z,6.50
2023-01-17T11:41:38.991Z,5.85
2023-01-17T11:44:23.848Z,2.40
2023-01-17T11:47:12.939Z,3.58
2023-01-17T11:49:42.747Z,2.22
2023-01-17T11:52:24.249Z,1.35
2023-01-17T11:54:54.365Z,1.30
2023-01-17T11:57:27.823Z,1.20
2023-01-17T12:00:19.659Z,0.63
2023-01-17T12:03:15.281Z,3.42
2023-01-17T12:06:03.687Z,2.37
2023-01-17T12:08:43.042Z,1.55
2023-01-17T12:11:17.017Z,2.25
2023-01-17T12:14:02.327Z,2.28
2023-01-17T12:17:00.508Z,2.43
2023-01-17T12:20:06.124Z,0.50
2023-01-17T12:23:01.299Z,0.60
2023-01-17T12:25:49.199Z,1.10
2023-01-17T12:29:02.381Z,5.38
2023-01-17T12:31:38.702Z,6.97
2023-01-17T12:34:24.178Z,2.65
2023-01-17T12:37:03.658Z,4.10
2023-01-17T12:39:41.959Z,4.32
2023-01-17T12:42:21.323Z,8.70
2023-01-17T12:45:11.721Z,6.38
2023-01-17T12:47:44.480Z,5.45
2023-01-17T12:50:26.847Z,5.13
2023-01-17T12:53:16.495Z,5.38
2023-01-17T12:55:58.681Z,3.43
2023-01-17T12:58:30.360Z,3.57
2023-01-17T13:01:05.328Z,5.03
2023-01-17T13:03:47.446Z,3.88
2023-01-17T13:06:35.967Z,2.92
2023-01-17T13:09:04.867Z,3.28
2023-01-17T13:11:50.392Z,3.00
2023-01-17T13:14:17.523Z,4.80
2023-01-17T13:16:54.596Z,7.07
2023-01-17T13:19:36.816Z,5.25
2023-01-17T13:22:08.527Z,4.73
2023-01-17T13:25:03.642Z,7.88
2023-01-17T13:27:49.961Z,6.18
2023-01-17T13:30:32.361Z,6.13
2023-01-17T13:33:11.133Z,4.65
2023-01-17T13:35:58.037Z,7.13
2023-01-17T13:38:33.684Z,6.68
2023-01-17T13:41:09.952Z,12.00
2023-01-17T13:44:04.214Z,26.93
2023-01-17T13:46:32.368Z,1.67
2023-01-17T13:49:20.964Z,9.07
2023-01-17T13:52:12.120Z,88.10
2023-01-17T13:54:47.927Z,54.90
2023-01-17T13:57:29.765Z,37.47
2023-01-17T13:59:59.207Z,54.67
2023-01-17T14:02:32.160Z,35.90
2023-01-17T14:05:15.841Z,25.88
2023-01-17T14:07:47.795Z,26.80
2023-01-17T14:10:30.282Z,32.88
2023-01-17T14:12:58.826Z,23.85
2023-01-17T14:15:28.044Z,21.65
2023-01-17T14:17:59.057Z,26.50
2023-01-17T14:20:26.105Z,18.17
2023-01-17T14:22:55.894Z,22.17
2023-01-17T14:25:40.251Z,17.17
2023-01-17T14:28:22.682Z,19.73
2023-01-17T14:30:55.824Z,22.60
2023-01-17T14:33:34.649Z,19.88
2023-01-17T14:36:05.665Z,14.23
2023-01-17T14:38:34.635Z,11.63
2023-01-17T14:41:08.248Z,24.48
2023-01-17T14:43:42.235Z,19.57
2023-01-17T14:46:33.604Z,20.30
2023-01-17T14:49:04.184Z,14.43
2023-01-17T14:51:35.066Z,15.88
2023-01-17T14:54:05.159Z,16.85
2023-01-17T14:56:32.918Z,13.93
2023-01-17T14:59:17.032Z,11.80
2023-01-17T15:02:07.265Z,8.60
2023-01-17T15:04:39.154Z,7.68
2023-01-17T15:07:07.423Z,7.13
2023-01-17T15:09:38.364Z,8.73
2023-01-17T15:12:10.137Z,7.00
2023-01-17T15:14:41.592Z,4.85
2023-01-17T15:17:10.883Z,5.50
2023-01-17T15:19:43.443Z,8.75
2023-01-17T15:22:11.663Z,5.25
2023-01-17T15:24:43.918Z,6.40
2023-01-17T15:27:15.419Z,9.27
2023-01-17T15:29:44.847Z,5.57
2023-01-17T15:32:31.116Z,9.70
2023-01-17T15:35:01.734Z,10.00
2023-01-17T15:37:32.699Z,10.47
2023-01-17T15:40:12.197Z,7.47
2023-01-17T15:42:43.110Z,18.08
2023-01-17T15:45:20.207Z,43.65
2023-01-17T15:47:48.897Z,39.72
2023-01-17T15:50:29.899Z,40.70
2023-01-17T15:53:01.074Z,43.35
2023-01-17T15:55:37.281Z,41.83
2023-01-17T15:58:22.382Z,45.70
2023-01-17T16:00:49.579Z,37.88
2023-01-17T16:03:19.607Z,45.90
2023-01-17T16:05:47.603Z,55.45
2023-01-17T16:08:38.581Z,64.68
2023-01-17T16:11:08.276Z,41.03
2023-01-17T16:13:42.281Z,47.92
2023-01-17T16:16:23.904Z,38.95
2023-01-17T16:18:58.406Z,37.57
2023-01-17T16:21:28.016Z,34.88
2023-01-17T16:23:56.355Z,32.30
2023-01-17T16:26:24.354Z,24.67
2023-01-17T16:28:51.667Z,19.88
2023-01-17T16:31:19.246Z,25.27
2023-01-17T16:33:49.310Z,18.75
2023-01-17T16:36:16.815Z,23.00
2023-01-17T16:38:45.088Z,22.38
2023-01-17T16:41:12.680Z,16.35
2023-01-17T16:43:39.862Z,25.30
2023-01-17T16:46:07.396Z,16.90
2023-01-17T16:48:36.873Z,21.15
2023-01-17T16:51:07.877Z,15.60
2023-01-17T16:53:36.461Z,17.23
2023-01-17T16:56:12.097Z,12.57
2023-01-17T16:58:40.274Z,12.45
2023-01-17T17:01:16.096Z,9.65
2023-01-17T17:03:44.707Z,11.82
2023-01-17T17:06:12.480Z,8.85
2023-01-17T17:08:39.821Z,6.87
2023-01-17T17:11:14.442Z,9.20
2023-01-17T17:13:43.873Z,7.50
2023-01-17T17:16:32.753Z,9.05
2023-01-17T17:19:05.944Z,5.93
2023-01-17T17:21:34.965Z,8.40
2023-01-17T17:24:02.571Z,6.90
2023-01-17T17:26:34.390Z,6.30
2023-01-17T17:29:02.706Z,6.93
2023-01-17T17:31:29.923Z,6.03
2023-01-17T17:34:01.634Z,5.90
2023-01-17T17:36:29.439Z,4.80
2023-01-17T17:38:58.099Z,6.93
2023-01-17T17:41:30.801Z,7.75
2023-01-17T17:43:57.995Z,4.90
2023-01-17T17:46:27.172Z,4.50
2023-01-17T17:48:55.005Z,4.78
2023-01-17T17:51:26.664Z,3.27
2023-01-17T17:53:55.423Z,4.97
2023-01-17T17:56:23.572Z,5.72
2023-01-17T17:58:50.833Z,6.95
2023-01-17T18:01:18.071Z,5.30
2023-01-17T18:03:45.294Z,8.80
2023-01-17T18:06:13.213Z,7.65
2023-01-17T18:08:40.339Z,7.80
2023-01-17T18:11:14.777Z,7.15
2023-01-17T18:13:42.753Z,8.40
2023-01-17T18:16:14.691Z,8.15
2023-01-17T18:18:45.987Z,12.77
2023-01-17T18:21:17.559Z,10.90
2023-01-17T18:23:45.102Z,15.85
2023-01-17T18:26:18.388Z,12.82
2023-01-17T18:28:45.567Z,12.73
2023-01-17T18:31:12.815Z,9.23
2023-01-17T18:33:40.457Z,9.57
2023-01-17T18:36:09.298Z,10.70
2023-01-17T18:38:44.595Z,20.75
2023-01-17T18:41:14.235Z,6.90
2023-01-17T18:43:41.471Z,6.97
2023-01-17T18:46:09.991Z,5.85
2023-01-17T18:48:38.169Z,5.78
2023-01-17T18:51:07.492Z,5.25
2023-01-17T18:53:37.294Z,7.07
2023-01-17T18:56:07.379Z,4.38
2023-01-17T18:58:39.935Z,4.75
2023-01-17T19:01:35.842Z,2.75
2023-01-17T19:04:05.173Z,2.53
2023-01-17T19:06:34.972Z,3.63
2023-01-17T19:09:02.771Z,9.70
2023-01-17T19:11:30.020Z,10.32
2023-01-17T19:13:57.391Z,6.13
2023-01-17T19:16:30.062Z,7.40
2023-01-17T19:19:01.400Z,4.32
2023-01-17T19:21:28.963Z,4.82
2023-01-17T19:23:56.952Z,3.20
2023-01-17T19:26:27.051Z,5.30
2023-01-17T19:29:03.741Z,4.17
2023-01-17T19:31:35.694Z,4.50
2023-01-17T19:34:03.130Z,6.07
2023-01-17T19:36:36.586Z,6.73
2023-01-17T19:39:09.447Z,9.23
2023-01-17T19:41:41.232Z,8.45
2023-01-17T19:44:10.157Z,9.30
2023-01-17T19:46:37.840Z,14.77
2023-01-17T19:49:07.522Z,10.95
2023-01-17T19:51:35.763Z,8.23
2023-01-17T19:54:04.041Z,12.23
2023-01-17T19:56:31.598Z,14.07
2023-01-17T19:59:01.184Z,11.50
2023-01-17T20:01:31.244Z,10.27
2023-01-17T20:04:00.179Z,8.80
2023-01-17T20:06:31.912Z,8.20
2023-01-17T20:08:59.281Z,8.68
2023-01-17T20:11:27.752Z,5.40
2023-01-17T20:13:57.170Z,10.93
2023-01-17T20:16:26.084Z,10.27
2023-01-17T20:18:53.373Z,8.35
2023-01-17T20:21:25.928Z,5.20
2023-01-17T20:23:54.447Z,8.05
2023-01-17T20:26:30.890Z,9.38
2023-01-17T20:28:58.119Z,5.28
2023-01-17T20:31:26.549Z,4.90
2023-01-17T20:33:55.557Z,6.68
2023-01-17T20:36:25.234Z,5.93
2023-01-17T20:38:53.474Z,5.75
2023-01-17T20:41:25.807Z,6.15
2023-01-17T20:43:56.634Z,9.15
2023-01-17T20:46:26.854Z,5.03
2023-01-17T20:48:56.025Z,10.45
2023-01-17T20:51:25.885Z,5.33
2023-01-17T20:53:59.612Z,7.07
2023-01-17T20:56:27.507Z,7.85
2023-01-17T20:58:54.827Z,16.48
2023-01-17T21:01:23.214Z,12.25
2023-01-17T21:03:53.676Z,11.93
2023-01-17T21:06:22.568Z,11.85
2023-01-17T21:08:50.473Z,6.13
2023-01-17T21:11:20.875Z,9.38
2023-01-17T21:13:51.387Z,6.55
2023-01-17T21:16:21.260Z,12.50
2023-01-17T21:18:50.384Z,10.52
2023-01-17T21:21:22.776Z,10.77
2023-01-17T21:23:51.475Z,10.63
2023-01-17T21:26:19.871Z,19.65
2023-01-17T21:28:48.197Z,10.80
2023-01-17T21:31:24.443Z,11.40
2023-01-17T21:33:53.071Z,12.13
2023-01-17T21:36:21.666Z,12.40
2023-01-17T21:38:54.464Z,11.73
2023-01-17T21:41:28.535Z,11.60
2023-01-17T21:43:57.450Z,10.30
2023-01-17T21:46:25.191Z,8.93
2023-01-17T21:48:52.307Z,8.77
2023-01-17T21:51:19.742Z,8.18
2023-01-17T21:53:46.853Z,9.27
2023-01-17T21:56:33.220Z,5.53
2023-01-17T21:59:00.408Z,3.53
2023-01-17T22:01:32.021Z,5.35
2023-01-17T22:04:01.190Z,3.95
2023-01-17T22:06:30.828Z,3.22
2023-01-17T22:08:58.529Z,3.00
2023-01-17T22:11:27.290Z,4.18
2023-01-17T22:13:54.407Z,4.93
2023-01-17T22:16:24.228Z,4.43
2023-01-17T22:18:51.613Z,7.40
2023-01-17T22:21:20.969Z,6.47
2023-01-17T22:23:49.516Z,6.97
2023-01-17T22:26:17.020Z,6.63
2023-01-17T22:28:44.933Z,8.30
2023-01-17T22:31:13.417Z,4.97
2023-01-17T22:33:42.857Z,13.43
2023-01-17T22:36:13.463Z,29.47
2023-01-17T22:38:44.178Z,23.77
2023-01-17T22:41:15.900Z,17.13
2023-01-17T22:43:45.084Z,18.37
2023-01-17T22:46:15.077Z,14.65
2023-01-17T22:48:42.627Z,28.75
2023-01-17T22:51:14.771Z,20.25
2023-01-17T22:53:44.074Z,19.42
2023-01-17T22:56:19.900Z,14.67
2023-01-17T22:58:48.807Z,21.70
2023-01-17T23:01:24.557Z,15.18
2023-01-17T23:03:54.633Z,22.13
2023-01-17T23:06:27.670Z,16.50
2023-01-17T23:08:56.722Z,13.98
2023-01-17T23:11:44.928Z,16.38
2023-01-17T23:14:52.051Z,10.75
2023-01-17T23:17:42.360Z,41.88
2023-01-17T23:20:10.921Z,17.13
2023-01-17T23:22:38.127Z,18.13
2023-01-17T23:25:14.112Z,14.80
2023-01-17T23:28:06.002Z,17.92
2023-01-17T23:30:40.990Z,14.38
2023-01-17T23:33:10.088Z,10.00
2023-01-17T23:35:45.377Z,10.68
2023-01-17T23:38:26.384Z,8.88
2023-01-17T23:41:17.639Z,9.60
2023-01-17T23:43:45.039Z,13.18
2023-01-17T23:46:12.755Z,7.38
2023-01-17T23:48:39.832Z,8.25
2023-01-17T23:51:08.047Z,9.07
2023-01-17T23:53:36.716Z,10.77
2023-01-17T23:56:18.404Z,10.32
2023-01-17T23:58:46.003Z,10.35
